createdAt,value
2023-01-31T00:04:42.814Z,4.00
2023-01-31T00:09:44.299Z,3.84
2023-01-31T00:14:46.005Z,3.84
2023-01-31T00:19:47.413Z,3.88
2023-01-31T00:24:48.899Z,3.94
2023-01-31T00:29:50.373Z,3.86
2023-01-31T00:34:51.978Z,3.84
2023-01-31T00:39:53.443Z,3.82
2023-01-31T00:44:54.904Z,3.73
2023-01-31T00:49:56.606Z,3.67
2023-01-31T00:54:58.046Z,3.79
2023-01-31T00:59:59.526Z,3.89
2023-01-31T01:05:01.006Z,4.00
2023-01-31T01:10:02.527Z,3.93
2023-01-31T01:15:04.628Z,3.90
2023-01-31T01:20:06.774Z,3.86
2023-01-31T01:25:09.372Z,3.81
2023-01-31T01:30:11.468Z,3.85
2023-01-31T01:35:13.084Z,3.90
2023-01-31T01:40:14.531Z,3.84
2023-01-31T01:45:16.054Z,3.89
2023-01-31T01:50:32.511Z,3.97
2023-01-31T01:55:43.942Z,4.16
2023-01-31T02:00:46.949Z,4.09
2023-01-31T02:05:58.087Z,4.05
2023-01-31T02:11:13.415Z,3.96
2023-01-31T02:16:15.791Z,4.16
2023-01-31T02:21:32.595Z,4.17
2023-01-31T02:26:52.792Z,4.04
2023-01-31T02:32:18.455Z,3.87
2023-01-31T02:37:36.833Z,3.77
2023-01-31T02:43:03.252Z,3.58
2023-01-31T02:48:15.491Z,3.49
2023-01-31T02:53:40.293Z,3.33
2023-01-31T02:58:47.334Z,3.25
2023-01-31T03:03:49.059Z,3.24
2023-01-31T03:08:57.093Z,3.24
2023-01-31T03:14:08.262Z,3.06
2023-01-31T03:19:23.274Z,3.01
2023-01-31T03:24:26.623Z,2.94
2023-01-31T03:29:33.408Z,2.95
2023-01-31T03:34:36.248Z,2.97
2023-01-31T03:39:44.992Z,2.99
2023-01-31T03:44:49.658Z,3.04
2023-01-31T03:49:53.726Z,2.96
2023-01-31T03:55:19.073Z,2.97
2023-01-31T04:00:22.881Z,2.96
2023-01-31T04:05:25.761Z,3.04
2023-01-31T04:10:27.303Z,2.98
2023-01-31T04:15:28.840Z,3.12
2023-01-31T04:20:30.440Z,3.16
2023-01-31T04:25:33.413Z,3.07
2023-01-31T04:30:35.134Z,3.03
2023-01-31T04:35:40.081Z,3.01
2023-01-31T04:40:41.621Z,2.86
2023-01-31T04:45:43.183Z,2.82
2023-01-31T04:50:44.842Z,2.70
2023-01-31T04:55:46.370Z,2.76
2023-01-31T05:00:47.873Z,2.72
2023-01-31T05:05:50.936Z,2.61
2023-01-31T05:11:04.252Z,2.60
2023-01-31T05:16:07.679Z,2.44
2023-01-31T05:21:10.446Z,2.44
2023-01-31T05:26:14.845Z,2.56
2023-01-31T05:31:16.438Z,2.42
2023-01-31T05:36:18.032Z,2.42
2023-01-31T05:41:19.482Z,2.41
2023-01-31T05:46:20.934Z,2.52
2023-01-31T05:51:22.560Z,2.64
2023-01-31T05:56:24.288Z,2.87
2023-01-31T06:01:27.648Z,2.89
2023-01-31T06:06:29.173Z,2.78
2023-01-31T06:11:30.925Z,2.86
2023-01-31T06:16:32.531Z,2.89
2023-01-31T06:21:34.057Z,2.86
2023-01-31T06:26:35.628Z,2.96
2023-01-31T06:31:37.103Z,2.79
2023-01-31T06:36:38.636Z,2.63
2023-01-31T06:41:40.207Z,2.73
2023-01-31T06:46:41.723Z,2.74
2023-01-31T06:51:43.235Z,2.84
2023-01-31T06:56:44.724Z,2.60
2023-01-31T07:01:46.385Z,2.46
2023-01-31T07:06:50.567Z,2.44
2023-01-31T07:11:52.225Z,2.48
2023-01-31T07:16:56.380Z,2.53
2023-01-31T07:21:57.936Z,2.31
2023-01-31T07:26:59.544Z,2.46
2023-01-31T07:32:00.990Z,2.51
2023-01-31T07:37:02.589Z,2.63
2023-01-31T07:42:04.262Z,2.87
2023-01-31T07:47:05.716Z,2.91
2023-01-31T07:52:08.536Z,2.96
2023-01-31T07:57:10.726Z,3.13
2023-01-31T08:02:13.865Z,3.13
2023-01-31T08:07:15.426Z,3.13
2023-01-31T08:12:16.961Z,3.23
2023-01-31T08:17:18.523Z,3.48
2023-01-31T08:22:20.279Z,3.63
2023-01-31T08:27:21.743Z,3.78
2023-01-31T08:32:23.255Z,3.99
2023-01-31T08:37:24.988Z,3.93
2023-01-31T08:42:26.433Z,4.21
2023-01-31T08:47:27.954Z,4.25
2023-01-31T08:52:30.097Z,4.76
2023-01-31T08:57:32.351Z,5.20
2023-01-31T09:02:34.031Z,5.33
2023-01-31T09:07:36.172Z,5.33
2023-01-31T09:12:37.790Z,5.16
2023-01-31T09:17:40.482Z,5.26
2023-01-31T09:22:41.986Z,5.33
2023-01-31T09:27:43.479Z,5.28
2023-01-31T09:32:44.989Z,5.11
2023-01-31T09:37:46.389Z,5.22
2023-01-31T09:42:48.402Z,5.36
2023-01-31T09:47:54.315Z,5.37
2023-01-31T09:52:57.039Z,5.26
2023-01-31T09:58:07.531Z,5.39
2023-01-31T10:03:31.855Z,5.17
2023-01-31T10:08:57.603Z,5.24
2023-01-31T10:14:18.244Z,5.27
2023-01-31T10:19:26.920Z,5.32
2023-01-31T10:24:40.695Z,5.33
2023-01-31T10:29:52.214Z,5.16
2023-01-31T10:34:59.491Z,5.26
2023-01-31T10:40:13.791Z,5.27
2023-01-31T10:45:19.645Z,5.21
2023-01-31T10:50:34.106Z,5.39
2023-01-31T10:55:43.922Z,4.98
2023-01-31T11:00:45.760Z,5.24
2023-01-31T11:05:55.179Z,5.36
2023-01-31T11:10:58.780Z,5.19
2023-01-31T11:16:03.031Z,5.18
2023-01-31T11:21:05.968Z,5.37
2023-01-31T11:26:07.725Z,5.33
2023-01-31T11:31:25.381Z,5.34
2023-01-31T11:36:33.432Z,5.24
2023-01-31T11:41:37.122Z,5.23
2023-01-31T11:46:43.264Z,5.02
2023-01-31T11:51:44.903Z,5.42
2023-01-31T11:56:48.005Z,5.38
2023-01-31T12:01:52.253Z,5.41
2023-01-31T12:07:06.209Z,5.44
2023-01-31T12:12:21.215Z,5.29
2023-01-31T12:17:23.063Z,5.26
2023-01-31T12:22:32.306Z,5.57
2023-01-31T12:27:39.746Z,5.65
2023-01-31T12:32:49.832Z,5.82
2023-01-31T12:38:10.515Z,5.80
2023-01-31T12:43:17.784Z,5.77
2023-01-31T12:48:28.089Z,5.96
2023-01-31T12:53:44.829Z,5.91
2023-01-31T12:58:49.307Z,5.98
2023-01-31T13:04:17.549Z,5.96
2023-01-31T13:09:26.868Z,5.89
2023-01-31T13:14:34.891Z,5.87
2023-01-31T13:19:54.188Z,6.06
2023-01-31T13:25:34.762Z,5.86
2023-01-31T13:30:44.273Z,6.18
2023-01-31T13:35:52.826Z,6.19
2023-01-31T13:40:57.228Z,6.10
2023-01-31T13:46:05.302Z,6.12
2023-01-31T13:51:09.975Z,6.12
2023-01-31T13:56:17.818Z,6.14
2023-01-31T14:01:24.287Z,6.17
2023-01-31T14:07:00.815Z,6.12
2023-01-31T14:12:22.175Z,6.08
2023-01-31T14:17:23.682Z,6.03
2023-01-31T14:22:34.353Z,6.16
2023-01-31T14:27:45.399Z,6.18
2023-01-31T14:32:58.221Z,6.09
2023-01-31T14:38:22.965Z,6.08
2023-01-31T14:43:24.396Z,6.03
2023-01-31T14:48:56.929Z,6.08
2023-01-31T14:54:26.161Z,6.11
2023-01-31T14:59:49.567Z,6.12
2023-01-31T15:05:07.666Z,6.14
2023-01-31T15:10:47.922Z,6.11
2023-01-31T15:15:50.484Z,6.17
2023-01-31T15:20:57.495Z,6.19
2023-01-31T15:26:00.978Z,6.12
2023-01-31T15:31:33.281Z,6.11
2023-01-31T15:37:09.322Z,6.10
2023-01-31T15:42:40.374Z,6.11
2023-01-31T15:47:41.976Z,5.99
2023-01-31T15:52:43.445Z,6.18
2023-01-31T15:57:47.424Z,6.07
2023-01-31T16:02:49.458Z,6.11
2023-01-31T16:07:51.020Z,5.76
2023-01-31T16:12:53.364Z,6.06
2023-01-31T16:17:57.453Z,6.15
2023-01-31T16:22:58.950Z,5.95
2023-01-31T16:28:04.912Z,6.03
2023-01-31T16:33:18.270Z,6.12
2023-01-31T16:38:25.691Z,6.10
2023-01-31T16:43:30.598Z,5.96
2023-01-31T16:48:35.054Z,6.14
2023-01-31T16:53:36.608Z,6.12
2023-01-31T16:58:52.190Z,6.12
2023-01-31T17:04:11.719Z,6.10
2023-01-31T17:09:19.004Z,6.07
2023-01-31T17:14:20.653Z,6.06
2023-01-31T17:19:22.028Z,6.12
2023-01-31T17:24:23.423Z,5.93
2023-01-31T17:29:24.940Z,6.01
2023-01-31T17:34:26.395Z,6.04
2023-01-31T17:39:27.925Z,5.99
2023-01-31T17:44:29.377Z,5.85
2023-01-31T17:49:30.789Z,6.08
2023-01-31T17:54:32.484Z,6.04
2023-01-31T17:59:34.608Z,5.97
2023-01-31T18:04:36.105Z,5.99
2023-01-31T18:09:37.577Z,5.98
2023-01-31T18:14:39.003Z,5.75
2023-01-31T18:19:40.483Z,5.90
2023-01-31T18:24:42.075Z,6.04
2023-01-31T18:29:44.184Z,6.04
2023-01-31T18:34:45.615Z,6.08
2023-01-31T18:39:48.671Z,6.08
2023-01-31T18:44:50.267Z,6.08
2023-01-31T18:49:51.798Z,6.12
2023-01-31T18:54:53.308Z,6.10
2023-01-31T18:59:54.841Z,6.14
2023-01-31T19:04:56.274Z,6.09
2023-01-31T19:09:57.769Z,6.09
2023-01-31T19:14:59.265Z,6.24
2023-01-31T19:20:00.766Z,6.14
2023-01-31T19:25:02.281Z,6.03
2023-01-31T19:30:04.427Z,5.93
2023-01-31T19:35:06.552Z,5.86
2023-01-31T19:40:08.367Z,5.86
2023-01-31T19:45:10.401Z,5.82
2023-01-31T19:50:12.506Z,5.67
2023-01-31T19:55:14.032Z,5.56
2023-01-31T20:00:15.966Z,5.65
2023-01-31T20:05:18.060Z,5.61
2023-01-31T20:10:20.149Z,5.75
2023-01-31T20:15:21.714Z,5.83
2023-01-31T20:20:23.735Z,5.95
2023-01-31T20:25:25.383Z,6.08
2023-01-31T20:30:26.909Z,6.11
2023-01-31T20:35:28.455Z,6.09
2023-01-31T20:40:29.887Z,6.15
2023-01-31T20:45:32.319Z,6.09
2023-01-31T20:50:33.889Z,6.16
2023-01-31T20:55:35.377Z,6.06
2023-01-31T21:00:36.868Z,6.26
2023-01-31T21:05:38.361Z,6.16
2023-01-31T21:10:39.860Z,6.26
2023-01-31T21:15:56.940Z,6.17
2023-01-31T21:20:58.454Z,6.26
2023-01-31T21:26:04.572Z,6.10
2023-01-31T21:31:08.782Z,6.05
2023-01-31T21:36:13.245Z,6.14
2023-01-31T21:41:15.462Z,6.21
2023-01-31T21:46:17.066Z,6.21
2023-01-31T21:51:21.501Z,6.39
2023-01-31T21:56:25.219Z,6.32
2023-01-31T22:01:32.470Z,6.24
2023-01-31T22:06:38.942Z,6.23
2023-01-31T22:11:40.912Z,6.12
2023-01-31T22:16:42.832Z,5.98
2023-01-31T22:21:44.290Z,5.97
2023-01-31T22:26:45.891Z,6.02
2023-01-31T22:31:47.407Z,6.02
2023-01-31T22:36:49.060Z,5.92
2023-01-31T22:41:50.602Z,5.86
2023-01-31T22:46:52.190Z,5.84
2023-01-31T22:51:53.609Z,6.01
2023-01-31T22:56:55.129Z,6.01
2023-01-31T23:01:56.600Z,6.10
2023-01-31T23:06:58.041Z,6.14
2023-01-31T23:11:59.483Z,6.15
2023-01-31T23:17:00.947Z,6.25
2023-01-31T23:22:02.401Z,6.26
2023-01-31T23:27:04.016Z,6.22
2023-01-31T23:32:05.712Z,6.15
2023-01-31T23:37:07.214Z,6.12
2023-01-31T23:42:08.694Z,6.09
2023-01-31T23:47:10.425Z,6.00
2023-01-31T23:52:11.977Z,5.98
2023-01-31T23:57:13.623Z,5.85
